»·PEaware :: N359W KMFR-KCEC

N359W :: KMFR-KCEC

FLIGHT INFORMATION

Flight Status: Arrived
Operator: Privately registered:
United States
More flights under this callsign
Pilot: Anonymous 18613 (18613)
Aircraft: BEECH AIRCRAFT BARON
(BE58)
More flights by this aircraft type
Origin: KMFR Rogue Valley Intl-Medford
United States
Destination: KCEC McNamara
United States
More flights between these airports :: More routes between these airports
Route: +JKSN1 OED V122 CEC
File this flight plan on PilotEdge
Remarks:
Altitude:
(Current/Filed)
8,000ft
Speed:
(Current/Filed)
185kts
Departed: 23-Jul-18 10:42 AM
Arrived: 23-Jul-18 11:26 AM
Distance/Time
Traveled:
70nm/0:44
Distance/Time
To Go:
Arrived

Flight Plot

Page will automatically refresh every two minutes.

Flight plan parsing failed; only flown route is shown


Map Options




Map Legend


Flown Route
Filed Route
Departure Airport
Arrival Airport
Navaid (VOR, NDB)
Fix

Horizontal Profiles

Position Reports

Time Latitude Longitude Heading Altitude Ground
Speed
23-Jul-18 10:23 42.374987 -122.877498 292 1334ft 0kts
23-Jul-18 10:24 42.374987 -122.877498 292 1334ft 0kts
23-Jul-18 10:25 42.374987 -122.877498 292 1334ft 0kts
23-Jul-18 10:26 42.374987 -122.877498 292 1334ft 0kts
23-Jul-18 10:27 42.374987 -122.877498 292 1334ft 0kts
23-Jul-18 10:28 42.374987 -122.877498 292 1334ft 0kts
23-Jul-18 10:29 42.374987 -122.877498 292 1334ft 0kts
23-Jul-18 10:30 42.374987 -122.877498 292 1334ft 0kts
23-Jul-18 10:31 42.374987 -122.877498 292 1334ft 0kts
23-Jul-18 10:32 42.374987 -122.877498 292 1334ft 0kts
23-Jul-18 10:33 42.374987 -122.877498 292 1334ft 0kts
23-Jul-18 10:34 42.374644 -122.878863 281 1334ft 8kts
23-Jul-18 10:35 42.374229 -122.879150 192 1334ft 0kts
23-Jul-18 10:36 42.374097 -122.879178 186 1334ft 7kts
23-Jul-18 10:37 42.372701 -122.875324 25 1334ft 8kts
23-Jul-18 10:38 42.378522 -122.876745 338 1334ft 25kts
23-Jul-18 10:39 42.384963 -122.880148 339 1334ft 25kts
23-Jul-18 10:40 42.385810 -122.880142 67 1334ft 0kts
23-Jul-18 10:41 42.385810 -122.880142 67 1334ft 0kts
23-Jul-18 10:42 42.385847 -122.880027 66 1334ft 4kts
23-Jul-18 10:43 42.376280 -122.873881 158 1416ft 113kts
23-Jul-18 10:44 42.352538 -122.881077 297 2352ft 149kts
23-Jul-18 10:45 42.386761 -122.906992 336 3517ft 139kts
23-Jul-18 10:46 42.421375 -122.927604 336 4720ft 135kts
23-Jul-18 10:47 42.457506 -122.921352 11 5863ft 131kts
23-Jul-18 10:48 42.492602 -122.913870 348 6896ft 132kts
23-Jul-18 10:49 42.529979 -122.923090 347 7742ft 140kts
23-Jul-18 10:50 42.570733 -122.934567 323 8079ft 167kts
23-Jul-18 10:51 42.551329 -122.969006 167 8089ft 185kts
23-Jul-18 10:52 42.500898 -122.949360 165 8022ft 189kts
23-Jul-18 10:53 42.453825 -122.950358 241 8030ft 180kts
23-Jul-18 10:54 42.431733 -123.011612 243 8023ft 181kts
23-Jul-18 10:55 42.403440 -123.067919 236 8023ft 182kts
23-Jul-18 10:56 42.374677 -123.124212 236 8023ft 181kts
23-Jul-18 10:57 42.346325 -123.180515 237 8022ft 181kts
23-Jul-18 10:58 42.317972 -123.237011 237 8022ft 181kts
23-Jul-18 10:59 42.289643 -123.293387 237 8022ft 181kts
23-Jul-18 11:00 42.261215 -123.349741 237 8022ft 181kts
23-Jul-18 11:01 42.232846 -123.405982 237 8022ft 181kts
23-Jul-18 11:02 42.204574 -123.461992 237 8017ft 181kts
23-Jul-18 11:03 42.176229 -123.518188 238 8001ft 181kts
23-Jul-18 11:04 42.146153 -123.572564 233 8002ft 181kts
23-Jul-18 11:05 42.115441 -123.626765 234 8004ft 181kts
23-Jul-18 11:06 42.085356 -123.681237 234 8005ft 181kts
23-Jul-18 11:07 42.055495 -123.735837 234 8006ft 181kts
23-Jul-18 11:08 42.025774 -123.790530 234 8007ft 180kts
23-Jul-18 11:09 41.996190 -123.845035 234 8009ft 180kts
23-Jul-18 11:10 41.966734 -123.899245 233 8010ft 179kts
23-Jul-18 11:11 41.937008 -123.953882 233 7696ft 193kts
23-Jul-18 11:12 41.904742 -124.013057 233 6518ft 194kts
23-Jul-18 11:13 41.874298 -124.068066 233 6038ft 179kts
23-Jul-18 11:14 41.844845 -124.121842 233 6039ft 179kts
23-Jul-18 11:15 41.815198 -124.175642 233 6038ft 179kts
23-Jul-18 11:16 41.787473 -124.230701 260 6037ft 179kts
23-Jul-18 11:17 41.812328 -124.288672 311 5365ft 185kts
23-Jul-18 11:18 41.841886 -124.331557 317 3938ft 136kts
23-Jul-18 11:19 41.865809 -124.367436 305 2300ft 128kts
23-Jul-18 11:20 41.866074 -124.414968 264 1649ft 150kts
23-Jul-18 11:21 41.888436 -124.425004 78 1619ft 104kts
23-Jul-18 11:22 41.871212 -124.385076 124 1636ft 145kts
23-Jul-18 11:23 41.852602 -124.347125 121 1637ft 112kts
23-Jul-18 11:24 41.833872 -124.311384 132 1462ft 118kts
23-Jul-18 11:25 41.812999 -124.281455 134 898ft 110kts
23-Jul-18 11:26 41.791564 -124.250913 134 295ft 113kts
23-Jul-18 11:27 41.776028 -124.228865 138 58ft 31kts
23-Jul-18 11:28 41.775668 -124.230196 294 58ft 16kts
23-Jul-18 11:29 41.778769 -124.235836 167 58ft 0kts
23-Jul-18 11:30 41.778769 -124.235836 167 58ft 0kts

Navigation Log

Ident Type
Flight plan parsing failed, navigation log unavailable